Time,TemperatureF,DewpointF,PressureIn,WindDirection,WindDirectionDegrees,WindSpeedMPH,WindSpeedGustMPH,Humidity,HourlyPrecipIn,Conditions,Clouds,dailyrainin,SolarRadiationWatts/m^2,SoftwareType,DateUTC
2013-03-31 00:00:00,33.5,22.3,30.11,NW,305,0.0,0.0,63,0.00,,,0.00,0,WeatherCatV1.13B119,2013-03-31 04:00:00,
2013-03-31 00:01:00,33.4,22.2,30.11,NW,305,2.0,2.0,63,0.00,,,0.00,0,WeatherCatV1.13B119,2013-03-31 04:01:00,
2013-03-31 00:05:00,33.2,22.4,30.11,NW,305,0.0,2.0,64,0.00,,,0.00,0,WeatherCatV1.13B119,2013-03-31 04:05:00,
2013-03-31 00:06:00,33.0,22.2,30.11,NW,305,0.0,2.0,64,0.00,,,0.00,0,WeatherCatV1.13B119,2013-03-31 04:06:00,
2013-03-31 00:11:00,32.8,22.3,30.11,NW,305,1.0,1.0,65,0.00,,,0.00,0,WeatherCatV1.13B119,2013-03-31 04:11:00,
2013-03-31 00:16:00,32.7,22.3,30.10,NW,305,0.0,2.0,65,0.00,,,0.00,0,WeatherCatV1.13B119,2013-03-31 04:16:00,
2013-03-31 00:21:00,32.6,22.5,30.10,ENE,73,0.0,0.0,66,0.00,,,0.00,0,WeatherCatV1.13B119,2013-03-31 04:21:00,
2013-03-31 00:26:00,32.6,22.2,30.10,ENE,73,0.0,0.0,65,0.00,,,0.00,0,WeatherCatV1.13B119,2013-03-31 04:26:00,
2013-03-31 00:31:00,32.5,22.4,30.10,ENE,73,0.0,0.0,66,0.00,,,0.00,0,WeatherCatV1.13B119,2013-03-31 04:31:00,
2013-03-31 00:36:00,32.5,23.5,30.10,ENE,73,0.0,0.0,69,0.00,,,0.00,0,WeatherCatV1.13B119,2013-03-31 04:36:00,
2013-03-31 00:41:00,32.4,23.4,30.10,NW,320,0.0,2.0,69,0.00,,,0.00,0,WeatherCatV1.13B119,2013-03-31 04:41:00,
2013-03-31 00:46:00,32.4,23.4,30.10,NW,320,0.0,0.0,69,0.00,,,0.00,0,WeatherCatV1.13B119,2013-03-31 04:46:00,
2013-03-31 00:51:00,32.3,22.6,30.10,NW,320,0.0,0.0,67,0.00,,,0.00,0,WeatherCatV1.13B119,2013-03-31 04:51:00,
2013-03-31 00:56:00,32.3,23.6,30.10,NW,320,0.0,1.0,70,0.00,,,0.00,0,WeatherCatV1.13B119,2013-03-31 04:56:00,
2013-03-31 01:01:00,32.1,23.1,30.10,NW,320,0.0,0.0,69,0.00,,,0.00,0,WeatherCatV1.13B119,2013-03-31 05:01:00,
2013-03-31 01:06:00,32.0,23.3,30.10,NE,50,0.0,1.0,70,0.00,,,0.00,0,WeatherCatV1.13B119,2013-03-31 05:06:00,
2013-03-31 01:11:00,31.9,23.2,30.10,NE,39,0.0,1.0,70,0.00,,,0.00,0,WeatherCatV1.13B119,2013-03-31 05:11:00,
2013-03-31 01:16:00,31.8,22.8,30.10,NE,39,0.0,0.0,69,0.00,,,0.00,0,WeatherCatV1.13B119,2013-03-31 05:16:00,
2013-03-31 01:21:00,31.8,23.5,30.10,SE,132,0.0,3.0,71,0.00,,,0.00,0,WeatherCatV1.13B119,2013-03-31 05:21:00,
2013-03-31 01:26:00,31.9,23.9,30.09,SE,134,0.0,0.0,72,0.00,,,0.00,0,WeatherCatV1.13B119,2013-03-31 05:26:00,
2013-03-31 01:31:00,31.8,23.5,30.09,West,262,1.0,2.0,71,0.00,,,0.00,0,WeatherCatV1.13B119,2013-03-31 05:31:00,
2013-03-31 01:37:00,31.7,23.4,30.09,West,262,0.0,0.0,71,0.00,,,0.00,0,WeatherCatV1.13B119,2013-03-31 05:37:00,
2013-03-31 01:42:00,31.6,23.6,30.09,West,274,0.0,1.0,72,0.00,,,0.00,0,WeatherCatV1.13B119,2013-03-31 05:42:00,
2013-03-31 01:47:00,31.5,23.5,30.09,West,274,1.0,2.0,72,0.00,,,0.00,0,WeatherCatV1.13B119,2013-03-31 05:47:00,
2013-03-31 01:51:00,31.4,23.4,30.09,WNW,298,0.0,2.0,72,0.00,,,0.00,0,WeatherCatV1.13B119,2013-03-31 05:51:00,
2013-03-31 01:56:00,31.3,24.0,30.09,WNW,298,0.0,1.0,74,0.00,,,0.00,0,WeatherCatV1.13B119,2013-03-31 05:56:00,
2013-03-31 02:01:00,31.3,24.0,30.09,WNW,298,0.0,0.0,74,0.00,,,0.00,0,WeatherCatV1.13B119,2013-03-31 06:01:00,
2013-03-31 02:06:00,31.3,24.3,30.09,NW,314,0.0,1.0,75,0.00,,,0.00,0,WeatherCatV1.13B119,2013-03-31 06:06:00,
2013-03-31 02:11:00,31.3,24.3,30.09,NW,314,0.0,0.0,75,0.00,,,0.00,0,WeatherCatV1.13B119,2013-03-31 06:11:00,
2013-03-31 02:16:00,31.4,24.7,30.08,NW,314,0.0,0.0,76,0.00,,,0.00,0,WeatherCatV1.13B119,2013-03-31 06:16:00,
2013-03-31 02:21:00,31.4,25.0,30.08,NE,54,0.0,1.0,77,0.00,,,0.00,0,WeatherCatV1.13B119,2013-03-31 06:21:00,
2013-03-31 02:26:00,31.4,25.0,30.08,NE,54,0.0,0.0,77,0.00,,,0.00,0,WeatherCatV1.13B119,2013-03-31 06:26:00,
2013-03-31 02:31:00,31.4,24.7,30.08,NE,54,0.0,1.0,76,0.00,,,0.00,0,WeatherCatV1.13B119,2013-03-31 06:31:00,
2013-03-31 02:36:00,31.4,24.4,30.07,NE,48,2.0,2.0,75,0.00,,,0.00,0,WeatherCatV1.13B119,2013-03-31 06:36:00,
2013-03-31 02:41:00,31.6,24.9,30.07,NE,48,0.0,0.0,76,0.00,,,0.00,0,WeatherCatV1.13B119,2013-03-31 06:41:00,
2013-03-31 02:46:00,31.7,25.0,30.07,NE,52,0.0,0.0,76,0.00,,,0.00,0,WeatherCatV1.13B119,2013-03-31 06:46:00,
2013-03-31 02:51:00,31.9,25.5,30.07,NE,52,0.0,1.0,77,0.00,,,0.00,0,WeatherCatV1.13B119,2013-03-31 06:51:00,
2013-03-31 02:56:00,31.9,24.6,30.06,NE,52,1.0,1.0,74,0.00,,,0.00,0,WeatherCatV1.13B119,2013-03-31 06:56:00,
2013-03-31 03:01:00,32.1,24.4,30.06,NE,44,0.0,0.0,73,0.00,,,0.00,0,WeatherCatV1.13B119,2013-03-31 07:01:00,
2013-03-31 03:06:00,32.2,25.5,30.05,NNW,334,0.0,0.0,76,0.00,,,0.00,0,WeatherCatV1.13B119,2013-03-31 07:06:00,
2013-03-31 03:11:00,32.5,26.1,30.05,WNW,296,0.0,3.0,77,0.00,,,0.00,0,WeatherCatV1.13B119,2013-03-31 07:11:00,
2013-03-31 03:16:00,32.6,25.6,30.05,SE,140,0.0,2.0,75,0.00,,,0.00,0,WeatherCatV1.13B119,2013-03-31 07:16:00,
2013-03-31 03:21:00,32.9,26.2,30.04,North,356,1.0,1.0,76,0.00,,,0.00,0,WeatherCatV1.13B119,2013-03-31 07:21:00,
2013-03-31 03:26:00,33.1,25.7,30.04,North,350,0.0,0.0,74,0.00,,,0.00,0,WeatherCatV1.13B119,2013-03-31 07:26:00,
2013-03-31 03:31:00,33.3,26.2,30.04,North,350,0.0,0.0,75,0.00,,,0.00,0,WeatherCatV1.13B119,2013-03-31 07:31:00,
2013-03-31 03:36:00,33.4,26.7,30.04,North,358,0.0,2.0,76,0.00,,,0.00,0,WeatherCatV1.13B119,2013-03-31 07:36:00,
2013-03-31 03:41:00,33.2,26.8,30.03,North,358,1.0,1.0,77,0.00,,,0.00,0,WeatherCatV1.13B119,2013-03-31 07:41:00,
2013-03-31 03:46:00,33.1,26.7,30.03,NE,40,2.0,3.0,77,0.00,,,0.00,0,WeatherCatV1.13B119,2013-03-31 07:46:00,
2013-03-31 03:51:00,33.0,26.9,30.03,NE,40,0.0,0.0,78,0.00,,,0.00,0,WeatherCatV1.13B119,2013-03-31 07:51:00,
2013-03-31 03:56:00,32.9,27.1,30.03,NE,40,0.0,0.0,79,0.00,,,0.00,0,WeatherCatV1.13B119,2013-03-31 07:56:00,
2013-03-31 04:01:00,32.9,27.1,30.03,East,100,1.0,2.0,79,0.00,,,0.00,0,WeatherCatV1.13B119,2013-03-31 08:01:00,
2013-03-31 04:06:00,32.8,27.0,30.03,WSW,253,2.0,2.0,79,0.00,,,0.00,0,WeatherCatV1.13B119,2013-03-31 08:06:00,
2013-03-31 04:11:00,32.6,26.5,30.02,West,273,0.0,1.0,78,0.00,,,0.00,0,WeatherCatV1.13B119,2013-03-31 08:11:00,
2013-03-31 04:16:00,32.6,26.5,30.02,West,273,0.0,1.0,78,0.00,,,0.00,0,WeatherCatV1.13B119,2013-03-31 08:16:00,
2013-03-31 04:21:00,32.5,26.7,30.02,SE,139,0.0,3.0,79,0.00,,,0.00,0,WeatherCatV1.13B119,2013-03-31 08:21:00,
2013-03-31 04:26:00,32.6,26.8,30.02,SE,139,0.0,0.0,79,0.00,,,0.00,0,WeatherCatV1.13B119,2013-03-31 08:26:00,
2013-03-31 04:31:00,32.7,26.9,30.02,SE,143,1.0,1.0,79,0.00,,,0.00,0,WeatherCatV1.13B119,2013-03-31 08:31:00,
2013-03-31 04:36:00,32.6,27.1,30.01,WNW,289,0.0,2.0,80,0.00,,,0.00,0,WeatherCatV1.13B119,2013-03-31 08:36:00,
2013-03-31 04:41:00,32.6,26.8,30.01,WNW,289,0.0,0.0,79,0.00,,,0.00,0,WeatherCatV1.13B119,2013-03-31 08:41:00,
2013-03-31 04:46:00,32.7,27.2,30.01,WNW,289,0.0,1.0,80,0.00,,,0.00,0,WeatherCatV1.13B119,2013-03-31 08:46:00,
2013-03-31 04:51:00,32.7,26.9,30.01,WNW,289,0.0,1.0,79,0.00,,,0.00,0,WeatherCatV1.13B119,2013-03-31 08:51:00,
2013-03-31 04:56:00,32.7,26.9,30.01,WNW,289,0.0,1.0,79,0.00,,,0.00,0,WeatherCatV1.13B119,2013-03-31 08:56:00,
2013-03-31 05:03:00,32.7,27.2,30.01,WNW,289,0.0,0.0,80,0.00,,,0.00,0,WeatherCatV1.13B119,2013-03-31 09:03:00,
2013-03-31 05:06:00,32.7,27.2,30.01,WNW,289,0.0,0.0,80,0.00,,,0.00,0,WeatherCatV1.13B119,2013-03-31 09:06:00,
2013-03-31 05:11:00,32.6,27.1,30.01,WNW,289,1.0,1.0,80,0.00,,,0.00,0,WeatherCatV1.13B119,2013-03-31 09:11:00,
2013-03-31 05:16:00,32.5,26.7,30.00,WNW,289,0.0,2.0,79,0.00,,,0.00,0,WeatherCatV1.13B119,2013-03-31 09:16:00,
2013-03-31 05:21:00,32.6,26.8,30.00,WNW,289,0.0,1.0,79,0.00,,,0.00,0,WeatherCatV1.13B119,2013-03-31 09:21:00,
2013-03-31 05:26:00,32.6,27.1,30.00,WNW,289,0.0,0.0,80,0.00,,,0.00,0,WeatherCatV1.13B119,2013-03-31 09:26:00,
2013-03-31 05:31:00,32.6,27.1,30.00,WNW,289,0.0,0.0,80,0.00,,,0.00,0,WeatherCatV1.13B119,2013-03-31 09:31:00,
2013-03-31 05:36:00,32.8,27.3,30.00,WNW,289,0.0,0.0,80,0.00,,,0.00,0,WeatherCatV1.13B119,2013-03-31 09:36:00,
2013-03-31 05:41:00,32.9,27.4,29.99,WNW,289,0.0,0.0,80,0.00,,,0.00,0,WeatherCatV1.13B119,2013-03-31 09:41:00,
2013-03-31 05:46:00,33.0,27.8,29.99,WNW,289,0.0,0.0,81,0.00,,,0.00,0,WeatherCatV1.13B119,2013-03-31 09:46:00,
2013-03-31 05:51:00,33.1,27.6,29.99,WNW,289,0.0,0.0,80,0.00,,,0.00,0,WeatherCatV1.13B119,2013-03-31 09:51:00,
2013-03-31 05:56:00,33.1,27.9,29.99,WNW,289,1.0,1.0,81,0.00,,,0.00,0,WeatherCatV1.13B119,2013-03-31 09:56:00,
2013-03-31 06:01:00,33.2,28.3,29.98,North,7,0.0,0.0,82,0.00,,,0.00,0,WeatherCatV1.13B119,2013-03-31 10:01:00,
2013-03-31 06:06:00,33.2,28.3,29.98,North,7,0.0,0.0,82,0.00,,,0.00,0,WeatherCatV1.13B119,2013-03-31 10:06:00,
2013-03-31 06:11:00,33.2,28.3,29.98,ENE,70,0.0,0.0,82,0.00,,,0.00,0,WeatherCatV1.13B119,2013-03-31 10:11:00,
2013-03-31 06:16:00,33.2,28.3,29.98,ENE,70,0.0,1.0,82,0.00,,,0.00,0,WeatherCatV1.13B119,2013-03-31 10:16:00,
2013-03-31 06:21:00,33.3,28.1,29.98,ENE,70,0.0,0.0,81,0.00,,,0.00,0,WeatherCatV1.13B119,2013-03-31 10:21:00,
2013-03-31 06:26:00,33.3,28.1,29.98,ESE,104,1.0,1.0,81,0.00,,,0.00,0,WeatherCatV1.13B119,2013-03-31 10:26:00,
2013-03-31 06:31:00,33.3,28.4,29.98,ESE,117,0.0,1.0,82,0.00,,,0.00,0,WeatherCatV1.13B119,2013-03-31 10:31:00,
2013-03-31 06:36:00,33.4,28.5,29.98,ESE,117,0.0,0.0,82,0.00,,,0.00,0,WeatherCatV1.13B119,2013-03-31 10:36:00,
2013-03-31 06:41:00,33.4,28.5,29.98,ESE,117,0.0,0.0,82,0.00,,,0.00,0,WeatherCatV1.13B119,2013-03-31 10:41:00,
2013-03-31 06:46:00,33.4,28.5,29.98,ESE,117,0.0,0.0,82,0.00,,,0.00,0,WeatherCatV1.13B119,2013-03-31 10:46:00,
2013-03-31 06:51:00,33.5,28.6,29.98,ESE,117,0.0,0.0,82,0.00,,,0.00,0,WeatherCatV1.13B119,2013-03-31 10:51:00,
2013-03-31 06:56:00,33.4,28.2,29.98,ESE,117,0.0,0.0,81,0.00,,,0.00,0,WeatherCatV1.13B119,2013-03-31 10:56:00,
2013-03-31 07:01:00,33.5,28.3,29.98,ESE,117,0.0,0.0,81,0.00,,,0.00,0,WeatherCatV1.13B119,2013-03-31 11:01:00,
2013-03-31 07:06:00,33.6,28.7,29.98,ESE,117,0.0,0.0,82,0.00,,,0.00,0,WeatherCatV1.13B119,2013-03-31 11:06:00,
2013-03-31 07:11:00,33.7,28.8,29.98,ESE,117,0.0,0.0,82,0.00,,,0.00,5,WeatherCatV1.13B119,2013-03-31 11:11:00,
2013-03-31 07:16:00,33.8,28.9,29.98,ESE,117,0.0,1.0,82,0.00,,,0.00,7,WeatherCatV1.13B119,2013-03-31 11:16:00,
2013-03-31 07:21:00,33.8,28.6,29.98,ESE,117,0.0,1.0,81,0.00,,,0.00,9,WeatherCatV1.13B119,2013-03-31 11:21:00,
2013-03-31 07:26:00,33.9,28.7,29.98,ESE,117,0.0,0.0,81,0.00,,,0.00,11,WeatherCatV1.13B119,2013-03-31 11:26:00,
2013-03-31 07:31:00,34.1,29.2,29.99,ESE,117,0.0,1.0,82,0.00,,,0.00,16,WeatherCatV1.13B119,2013-03-31 11:31:00,
2013-03-31 07:36:00,34.3,29.4,29.99,ESE,117,1.0,1.0,82,0.00,,,0.00,18,WeatherCatV1.13B119,2013-03-31 11:36:00,
2013-03-31 07:41:00,34.4,29.5,29.99,ESE,119,0.0,1.0,82,0.00,,,0.00,19,WeatherCatV1.13B119,2013-03-31 11:41:00,
2013-03-31 07:46:00,34.6,29.7,29.98,ESE,119,1.0,1.0,82,0.00,,,0.00,18,WeatherCatV1.13B119,2013-03-31 11:46:00,
2013-03-31 07:51:00,34.7,30.4,29.99,ESE,119,0.0,0.0,84,0.00,,,0.00,19,WeatherCatV1.13B119,2013-03-31 11:51:00,
2013-03-31 07:56:00,34.8,30.2,29.98,ESE,119,0.0,0.0,83,0.00,,,0.00,23,WeatherCatV1.13B119,2013-03-31 11:56:00,
2013-03-31 08:01:00,34.9,30.0,29.98,ESE,119,0.0,1.0,82,0.00,,,0.00,25,WeatherCatV1.13B119,2013-03-31 12:01:00,
2013-03-31 08:06:00,35.2,30.3,29.98,West,273,0.0,2.0,82,0.00,,,0.00,33,WeatherCatV1.13B119,2013-03-31 12:06:00,
2013-03-31 08:11:00,35.4,30.5,29.98,West,273,0.0,0.0,82,0.00,,,0.00,40,WeatherCatV1.13B119,2013-03-31 12:11:00,
2013-03-31 08:16:00,35.6,30.7,29.98,West,273,0.0,0.0,82,0.00,,,0.00,40,WeatherCatV1.13B119,2013-03-31 12:16:00,
2013-03-31 08:21:00,36.0,31.3,29.98,West,273,0.0,2.0,83,0.00,,,0.00,46,WeatherCatV1.13B119,2013-03-31 12:21:00,
2013-03-31 08:26:00,36.4,31.4,29.97,West,274,0.0,1.0,82,0.00,,,0.00,42,WeatherCatV1.13B119,2013-03-31 12:26:00,
2013-03-31 08:31:00,36.6,31.6,29.97,West,274,0.0,0.0,82,0.00,,,0.00,44,WeatherCatV1.13B119,2013-03-31 12:31:00,
2013-03-31 08:36:00,37.0,32.3,29.97,SSE,147,0.0,1.0,83,0.00,,,0.00,47,WeatherCatV1.13B119,2013-03-31 12:36:00,
2013-03-31 08:41:00,37.3,32.6,29.97,SE,138,0.0,1.0,83,0.00,,,0.00,56,WeatherCatV1.13B119,2013-03-31 12:41:00,
2013-03-31 08:46:00,37.3,32.6,29.97,SE,141,0.0,1.0,83,0.00,,,0.00,53,WeatherCatV1.13B119,2013-03-31 12:46:00,
2013-03-31 08:51:00,37.4,32.7,29.97,SE,141,0.0,0.0,83,0.00,,,0.00,53,WeatherCatV1.13B119,2013-03-31 12:51:00,
2013-03-31 08:56:00,37.6,32.9,29.97,SSE,160,0.0,1.0,83,0.00,,,0.00,54,WeatherCatV1.13B119,2013-03-31 12:56:00,
2013-03-31 08:58:00,37.7,33.3,29.97,SSE,160,0.0,0.0,84,0.00,,,0.00,53,WeatherCatV1.13B119,2013-03-31 12:58:00,
2013-03-31 09:01:00,37.9,33.5,29.97,SSE,160,0.0,0.0,84,0.00,,,0.00,53,WeatherCatV1.13B119,2013-03-31 13:01:00,
2013-03-31 09:06:00,38.1,33.7,29.97,SSE,160,0.0,1.0,84,0.00,,,0.00,46,WeatherCatV1.13B119,2013-03-31 13:06:00,
2013-03-31 09:11:00,38.3,34.2,29.96,SSE,160,0.0,0.0,85,0.00,,,0.00,33,WeatherCatV1.13B119,2013-03-31 13:11:00,
2013-03-31 09:17:00,38.4,34.3,29.96,SSE,160,0.0,0.0,85,0.00,,,0.01,37,WeatherCatV1.13B119,2013-03-31 13:17:00,
2013-03-31 09:22:00,38.5,34.4,29.97,SSE,152,1.0,1.0,85,0.00,,,0.01,39,WeatherCatV1.13B119,2013-03-31 13:22:00,
2013-03-31 09:26:00,38.3,34.2,29.96,ESE,121,2.0,2.0,85,0.06,,,0.02,32,WeatherCatV1.13B119,2013-03-31 13:26:00,
2013-03-31 09:31:00,38.0,33.9,29.96,ESE,117,0.0,1.0,85,0.13,,,0.03,35,WeatherCatV1.13B119,2013-03-31 13:31:00,
2013-03-31 09:36:00,37.9,33.8,29.96,ESE,117,0.0,1.0,85,0.08,,,0.04,39,WeatherCatV1.13B119,2013-03-31 13:36:00,
2013-03-31 09:41:00,38.1,34.0,29.95,North,356,1.0,2.0,85,0.08,,,0.04,33,WeatherCatV1.13B119,2013-03-31 13:41:00,
2013-03-31 09:46:00,38.4,34.3,29.94,North,356,0.0,1.0,85,0.05,,,0.05,51,WeatherCatV1.13B119,2013-03-31 13:46:00,
2013-03-31 09:53:00,38.7,34.6,29.93,NNW,347,1.0,2.0,85,0.05,,,0.05,65,WeatherCatV1.13B119,2013-03-31 13:53:00,
2013-03-31 09:56:00,38.9,34.8,29.93,NNW,335,0.0,1.0,85,0.05,,,0.05,62,WeatherCatV1.13B119,2013-03-31 13:56:00,
2013-03-31 10:01:00,39.3,35.2,29.93,NE,44,0.0,1.0,85,0.04,,,0.05,81,WeatherCatV1.13B119,2013-03-31 14:01:00,
2013-03-31 10:06:00,39.7,35.9,29.93,NE,46,1.0,2.0,86,0.00,,,0.05,67,WeatherCatV1.13B119,2013-03-31 14:06:00,
2013-03-31 10:11:00,40.1,36.3,29.92,East,79,2.0,2.0,86,0.00,,,0.06,113,WeatherCatV1.13B119,2013-03-31 14:11:00,
2013-03-31 10:16:00,40.4,36.5,29.92,East,100,3.0,5.0,86,0.00,,,0.06,114,WeatherCatV1.13B119,2013-03-31 14:16:00,
2013-03-31 10:21:00,39.8,36.0,29.93,ESE,111,3.0,7.0,86,0.00,,,0.06,97,WeatherCatV1.13B119,2013-03-31 14:21:00,
2013-03-31 10:26:00,39.6,35.8,29.93,NNE,21,0.0,2.0,86,0.00,,,0.06,79,WeatherCatV1.13B119,2013-03-31 14:26:00,
2013-03-31 10:31:00,39.9,36.1,29.93,NNE,17,0.0,2.0,86,0.00,,,0.06,86,WeatherCatV1.13B119,2013-03-31 14:31:00,
2013-03-31 10:36:00,40.2,36.4,29.93,NNW,334,0.0,1.0,86,0.00,,,0.07,88,WeatherCatV1.13B119,2013-03-31 14:36:00,
2013-03-31 10:41:00,40.5,36.4,29.93,NNW,333,0.0,0.0,85,0.00,,,0.07,98,WeatherCatV1.13B119,2013-03-31 14:41:00,
2013-03-31 10:46:00,40.7,36.8,29.93,NNW,333,0.0,1.0,86,0.00,,,0.07,84,WeatherCatV1.13B119,2013-03-31 14:46:00,
2013-03-31 10:51:00,41.1,37.2,29.93,NNW,333,0.0,1.0,86,0.00,,,0.07,105,WeatherCatV1.13B119,2013-03-31 14:51:00,
2013-03-31 10:56:00,41.5,37.3,29.93,NW,314,2.0,2.0,85,0.00,,,0.07,67,WeatherCatV1.13B119,2013-03-31 14:56:00,
2013-03-31 11:01:00,41.5,37.6,29.93,NW,306,1.0,2.0,86,0.00,,,0.07,65,WeatherCatV1.13B119,2013-03-31 15:01:00,
2013-03-31 11:06:00,41.6,37.7,29.93,NW,306,0.0,1.0,86,0.00,,,0.07,54,WeatherCatV1.13B119,2013-03-31 15:06:00,
2013-03-31 11:11:00,41.7,37.8,29.93,NW,306,0.0,0.0,86,0.00,,,0.08,51,WeatherCatV1.13B119,2013-03-31 15:11:00,
2013-03-31 11:16:00,41.7,37.8,29.93,NW,306,0.0,0.0,86,0.00,,,0.08,49,WeatherCatV1.13B119,2013-03-31 15:16:00,
2013-03-31 11:21:00,41.9,38.0,29.93,NW,306,0.0,0.0,86,0.07,,,0.09,90,WeatherCatV1.13B119,2013-03-31 15:21:00,
2013-03-31 11:26:00,42.1,38.2,29.92,NNW,329,0.0,1.0,86,0.07,,,0.09,113,WeatherCatV1.13B119,2013-03-31 15:26:00,
2013-03-31 11:31:00,42.3,38.4,29.92,NNW,329,1.0,1.0,86,0.05,,,0.09,100,WeatherCatV1.13B119,2013-03-31 15:31:00,
2013-03-31 11:36:00,42.6,38.7,29.92,NNW,329,0.0,2.0,86,0.04,,,0.10,111,WeatherCatV1.13B119,2013-03-31 15:36:00,
2013-03-31 11:41:00,42.7,38.8,29.92,NNW,330,1.0,1.0,86,0.11,,,0.11,132,WeatherCatV1.13B119,2013-03-31 15:41:00,
2013-03-31 11:46:00,42.8,38.9,29.92,North,356,1.0,1.0,86,0.11,,,0.11,123,WeatherCatV1.13B119,2013-03-31 15:46:00,
2013-03-31 11:51:00,42.9,39.0,29.92,North,356,1.0,2.0,86,0.07,,,0.12,98,WeatherCatV1.13B119,2013-03-31 15:51:00,
2013-03-31 11:56:00,42.9,39.0,29.91,NE,34,0.0,3.0,86,0.07,,,0.12,98,WeatherCatV1.13B119,2013-03-31 15:56:00,
2013-03-31 12:01:00,43.0,39.1,29.91,North,2,2.0,3.0,86,0.07,,,0.13,65,WeatherCatV1.13B119,2013-03-31 16:01:00,
2013-03-31 12:06:00,43.1,39.2,29.91,North,2,0.0,1.0,86,0.07,,,0.13,81,WeatherCatV1.13B119,2013-03-31 16:06:00,
2013-03-31 12:11:00,43.1,39.2,29.90,NE,48,2.0,3.0,86,0.05,,,0.14,114,WeatherCatV1.13B119,2013-03-31 16:11:00,
2013-03-31 12:16:00,43.1,39.2,29.90,NE,46,0.0,2.0,86,0.05,,,0.14,132,WeatherCatV1.13B119,2013-03-31 16:16:00,
2013-03-31 12:25:00,43.2,39.3,29.89,NE,35,2.0,3.0,86,0.07,,,0.15,90,WeatherCatV1.13B119,2013-03-31 16:25:00,
2013-03-31 12:30:00,43.2,39.3,29.89,NNE,27,3.0,4.0,86,0.04,,,0.16,102,WeatherCatV1.13B119,2013-03-31 16:30:00,
2013-03-31 12:31:00,43.2,39.3,29.88,NE,44,3.0,4.0,86,0.04,,,0.16,98,WeatherCatV1.13B119,2013-03-31 16:31:00,
2013-03-31 12:35:00,43.2,39.3,29.88,NE,36,1.0,4.0,86,0.04,,,0.16,111,WeatherCatV1.13B119,2013-03-31 16:35:00,
2013-03-31 12:40:00,43.4,39.5,29.87,NE,45,2.0,4.0,86,0.10,,,0.17,174,WeatherCatV1.13B119,2013-03-31 16:40:00,
2013-03-31 12:41:00,43.4,39.5,29.87,NE,34,3.0,4.0,86,0.10,,,0.17,181,WeatherCatV1.13B119,2013-03-31 16:41:00,
2013-03-31 12:46:00,43.4,39.5,29.87,ENE,65,3.0,5.0,86,0.06,,,0.17,176,WeatherCatV1.13B119,2013-03-31 16:46:00,
2013-03-31 12:51:00,43.6,39.7,29.87,NE,36,3.0,4.0,86,0.04,,,0.17,120,WeatherCatV1.13B119,2013-03-31 16:51:00,
2013-03-31 12:56:00,43.6,39.7,29.86,NE,42,5.0,5.0,86,0.00,,,0.17,105,WeatherCatV1.13B119,2013-03-31 16:56:00,
2013-03-31 13:01:00,43.7,39.8,29.86,NNE,28,1.0,3.0,86,0.00,,,0.17,90,WeatherCatV1.13B119,2013-03-31 17:01:00,
2013-03-31 13:06:00,43.8,39.9,29.86,ENE,61,1.0,4.0,86,0.00,,,0.17,69,WeatherCatV1.13B119,2013-03-31 17:06:00,
2013-03-31 13:12:00,43.8,39.9,29.86,NE,46,1.0,3.0,86,0.00,,,0.17,62,WeatherCatV1.13B119,2013-03-31 17:12:00,
2013-03-31 13:17:00,43.7,39.8,29.85,NE,44,0.0,3.0,86,0.00,,,0.17,70,WeatherCatV1.13B119,2013-03-31 17:17:00,
2013-03-31 13:21:00,43.8,39.9,29.85,NE,42,1.0,2.0,86,0.00,,,0.17,70,WeatherCatV1.13B119,2013-03-31 17:21:00,
2013-03-31 13:26:00,43.8,39.9,29.85,ENE,61,2.0,3.0,86,0.00,,,0.17,76,WeatherCatV1.13B119,2013-03-31 17:26:00,
2013-03-31 13:31:00,44.0,40.1,29.85,ENE,70,1.0,3.0,86,0.00,,,0.17,65,WeatherCatV1.13B119,2013-03-31 17:31:00,
2013-03-31 13:36:00,44.0,40.1,29.84,East,87,2.0,3.0,86,0.00,,,0.17,84,WeatherCatV1.13B119,2013-03-31 17:36:00,
2013-03-31 13:41:00,44.0,40.1,29.83,East,95,2.0,2.0,86,0.00,,,0.17,107,WeatherCatV1.13B119,2013-03-31 17:41:00,
2013-03-31 13:46:00,44.3,40.4,29.83,East,88,2.0,3.0,86,0.00,,,0.17,181,WeatherCatV1.13B119,2013-03-31 17:46:00,
2013-03-31 13:51:00,44.4,40.5,29.83,East,84,2.0,2.0,86,0.00,,,0.17,104,WeatherCatV1.13B119,2013-03-31 17:51:00,
2013-03-31 13:56:00,44.3,40.4,29.83,NE,45,3.0,4.0,86,0.00,,,0.17,132,WeatherCatV1.13B119,2013-03-31 17:56:00,
2013-03-31 14:01:00,44.2,40.3,29.83,NE,52,2.0,3.0,86,0.00,,,0.17,100,WeatherCatV1.13B119,2013-03-31 18:01:00,
2013-03-31 14:06:00,44.3,40.4,29.82,NE,48,2.0,3.0,86,0.00,,,0.17,111,WeatherCatV1.13B119,2013-03-31 18:06:00,
2013-03-31 14:11:00,44.5,40.6,29.82,ENE,71,2.0,2.0,86,0.00,,,0.17,139,WeatherCatV1.13B119,2013-03-31 18:11:00,
2013-03-31 14:16:00,44.3,40.4,29.82,East,92,1.0,2.0,86,0.00,,,0.17,84,WeatherCatV1.13B119,2013-03-31 18:16:00,
2013-03-31 14:21:00,44.3,40.4,29.81,NE,40,2.0,2.0,86,0.00,,,0.17,77,WeatherCatV1.13B119,2013-03-31 18:21:00,
2013-03-31 14:26:00,44.3,40.4,29.81,NE,51,1.0,2.0,86,0.00,,,0.17,58,WeatherCatV1.13B119,2013-03-31 18:26:00,
2013-03-31 14:31:00,44.4,40.5,29.81,NE,50,0.0,1.0,86,0.00,,,0.17,63,WeatherCatV1.13B119,2013-03-31 18:31:00,
2013-03-31 14:36:00,44.3,40.4,29.81,NE,50,0.0,1.0,86,0.00,,,0.17,44,WeatherCatV1.13B119,2013-03-31 18:36:00,
2013-03-31 14:41:00,44.4,40.5,29.81,NE,50,0.0,1.0,86,0.00,,,0.17,47,WeatherCatV1.13B119,2013-03-31 18:41:00,
2013-03-31 14:46:00,44.5,40.6,29.80,NE,52,0.0,0.0,86,0.00,,,0.17,67,WeatherCatV1.13B119,2013-03-31 18:46:00,
2013-03-31 14:51:00,44.6,40.7,29.80,NE,38,1.0,1.0,86,0.00,,,0.17,40,WeatherCatV1.13B119,2013-03-31 18:51:00,
2013-03-31 14:56:00,44.7,40.8,29.80,NW,320,0.0,2.0,86,0.00,,,0.17,39,WeatherCatV1.13B119,2013-03-31 18:56:00,
2013-03-31 15:01:00,44.7,40.8,29.79,ENE,77,1.0,1.0,86,0.00,,,0.17,63,WeatherCatV1.13B119,2013-03-31 19:01:00,
2013-03-31 15:06:00,44.8,40.9,29.79,NW,314,0.0,3.0,86,0.00,,,0.17,47,WeatherCatV1.13B119,2013-03-31 19:06:00,
2013-03-31 15:11:00,44.8,40.9,29.80,NNE,17,0.0,2.0,86,0.00,,,0.17,53,WeatherCatV1.13B119,2013-03-31 19:11:00,
2013-03-31 15:16:00,44.8,40.9,29.80,NW,309,0.0,0.0,86,0.00,,,0.17,39,WeatherCatV1.13B119,2013-03-31 19:16:00,
2013-03-31 15:21:00,44.8,40.9,29.80,North,7,2.0,2.0,86,0.00,,,0.18,35,WeatherCatV1.13B119,2013-03-31 19:21:00,
2013-03-31 15:26:00,44.9,41.0,29.80,NNE,17,1.0,2.0,86,0.00,,,0.18,47,WeatherCatV1.13B119,2013-03-31 19:26:00,
2013-03-31 15:31:00,44.9,41.0,29.80,NNE,17,0.0,1.0,86,0.00,,,0.18,39,WeatherCatV1.13B119,2013-03-31 19:31:00,
2013-03-31 15:36:00,45.0,41.1,29.79,North,7,2.0,2.0,86,0.00,,,0.18,39,WeatherCatV1.13B119,2013-03-31 19:36:00,
2013-03-31 15:41:00,45.0,41.1,29.79,NNW,345,1.0,2.0,86,0.00,,,0.18,35,WeatherCatV1.13B119,2013-03-31 19:41:00,
2013-03-31 15:46:00,44.9,41.0,29.79,NW,325,2.0,2.0,86,0.00,,,0.18,46,WeatherCatV1.13B119,2013-03-31 19:46:00,
2013-03-31 15:51:00,45.0,41.1,29.79,NW,322,2.0,2.0,86,0.00,,,0.18,53,WeatherCatV1.13B119,2013-03-31 19:51:00,
2013-03-31 15:54:00,45.0,41.1,29.80,NW,320,1.0,2.0,86,0.00,,,0.18,33,WeatherCatV1.13B119,2013-03-31 19:54:00,
2013-03-31 15:56:00,45.0,41.1,29.79,NW,320,0.0,0.0,86,0.00,,,0.18,37,WeatherCatV1.13B119,2013-03-31 19:56:00,
2013-03-31 16:01:00,45.0,41.1,29.79,NW,316,2.0,2.0,86,0.00,,,0.18,37,WeatherCatV1.13B119,2013-03-31 20:01:00,
2013-03-31 16:06:00,44.9,41.0,29.79,NW,317,0.0,0.0,86,0.00,,,0.18,47,WeatherCatV1.13B119,2013-03-31 20:06:00,
2013-03-31 16:11:00,45.0,41.1,29.78,NW,317,0.0,0.0,86,0.00,,,0.18,74,WeatherCatV1.13B119,2013-03-31 20:11:00,
2013-03-31 16:16:00,45.2,41.3,29.78,NW,319,0.0,2.0,86,0.00,,,0.18,65,WeatherCatV1.13B119,2013-03-31 20:16:00,
2013-03-31 16:21:00,45.3,41.4,29.78,NW,312,2.0,2.0,86,0.00,,,0.18,74,WeatherCatV1.13B119,2013-03-31 20:21:00,
2013-03-31 16:26:00,45.5,41.6,29.77,NE,36,0.0,1.0,86,0.00,,,0.18,195,WeatherCatV1.13B119,2013-03-31 20:26:00,
2013-03-31 16:27:00,45.5,41.6,29.77,NE,36,1.0,1.0,86,0.00,,,0.18,200,WeatherCatV1.13B119,2013-03-31 20:27:00,
2013-03-31 16:31:00,45.9,42.0,29.77,NE,40,2.0,2.0,86,0.00,,,0.18,211,WeatherCatV1.13B119,2013-03-31 20:31:00,
2013-03-31 16:36:00,46.0,42.0,29.77,NE,54,0.0,4.0,86,0.00,,,0.18,162,WeatherCatV1.13B119,2013-03-31 20:36:00,
2013-03-31 16:41:00,46.2,42.2,29.77,NE,53,0.0,0.0,86,0.00,,,0.18,109,WeatherCatV1.13B119,2013-03-31 20:41:00,
2013-03-31 16:46:00,46.1,42.1,29.77,NE,56,0.0,0.0,86,0.00,,,0.18,111,WeatherCatV1.13B119,2013-03-31 20:46:00,
2013-03-31 16:51:00,46.2,42.2,29.78,NNE,17,1.0,1.0,86,0.00,,,0.18,93,WeatherCatV1.13B119,2013-03-31 20:51:00,
2013-03-31 16:56:00,46.3,42.3,29.78,NNE,17,0.0,1.0,86,0.00,,,0.18,70,WeatherCatV1.13B119,2013-03-31 20:56:00,
2013-03-31 17:03:00,46.4,42.4,29.77,NNE,17,0.0,0.0,86,0.00,,,0.18,91,WeatherCatV1.13B119,2013-03-31 21:03:00,
2013-03-31 17:08:00,46.5,42.5,29.77,NNE,17,0.0,1.0,86,0.00,,,0.18,95,WeatherCatV1.13B119,2013-03-31 21:08:00,
2013-03-31 17:13:00,46.7,42.7,29.77,NNE,17,0.0,0.0,86,0.00,,,0.18,79,WeatherCatV1.13B119,2013-03-31 21:13:00,
2013-03-31 17:18:00,46.7,43.0,29.78,NNE,17,0.0,0.0,87,0.00,,,0.18,53,WeatherCatV1.13B119,2013-03-31 21:18:00,
2013-03-31 17:21:00,46.7,42.7,29.78,NNE,17,0.0,2.0,86,0.00,,,0.18,47,WeatherCatV1.13B119,2013-03-31 21:21:00,
2013-03-31 17:26:00,46.8,43.1,29.77,NW,325,0.0,0.0,87,0.00,,,0.18,37,WeatherCatV1.13B119,2013-03-31 21:26:00,
2013-03-31 17:31:00,46.8,42.8,29.78,NW,325,2.0,2.0,86,0.00,,,0.18,28,WeatherCatV1.13B119,2013-03-31 21:31:00,
2013-03-31 17:36:00,46.8,43.1,29.78,NW,325,0.0,0.0,87,0.00,,,0.18,40,WeatherCatV1.13B119,2013-03-31 21:36:00,
2013-03-31 17:41:00,46.8,42.8,29.77,NE,47,1.0,2.0,86,0.00,,,0.18,33,WeatherCatV1.13B119,2013-03-31 21:41:00,
2013-03-31 17:46:00,46.7,42.7,29.77,NNW,331,0.0,3.0,86,0.00,,,0.18,23,WeatherCatV1.13B119,2013-03-31 21:46:00,
2013-03-31 17:51:00,46.7,42.7,29.77,North,7,1.0,2.0,86,0.00,,,0.18,30,WeatherCatV1.13B119,2013-03-31 21:51:00,
2013-03-31 17:56:00,46.7,42.7,29.76,ESE,118,0.0,2.0,86,0.00,,,0.18,70,WeatherCatV1.13B119,2013-03-31 21:56:00,
2013-03-31 18:01:00,46.9,42.9,29.76,ESE,107,0.0,1.0,86,0.00,,,0.18,72,WeatherCatV1.13B119,2013-03-31 22:01:00,
2013-03-31 18:07:00,46.9,42.9,29.77,ESE,107,0.0,0.0,86,0.00,,,0.18,62,WeatherCatV1.13B119,2013-03-31 22:07:00,
2013-03-31 18:11:00,46.9,42.9,29.77,ESE,107,0.0,0.0,86,0.00,,,0.18,37,WeatherCatV1.13B119,2013-03-31 22:11:00,
2013-03-31 18:16:00,46.9,42.9,29.77,ESE,107,0.0,0.0,86,0.00,,,0.18,28,WeatherCatV1.13B119,2013-03-31 22:16:00,
2013-03-31 18:21:00,46.9,42.9,29.77,ESE,107,0.0,0.0,86,0.00,,,0.18,26,WeatherCatV1.13B119,2013-03-31 22:21:00,
2013-03-31 18:26:00,46.9,43.2,29.77,ESE,107,0.0,0.0,87,0.00,,,0.18,19,WeatherCatV1.13B119,2013-03-31 22:26:00,
2013-03-31 18:31:00,46.9,42.9,29.77,ESE,120,0.0,2.0,86,0.00,,,0.18,39,WeatherCatV1.13B119,2013-03-31 22:31:00,
2013-03-31 18:36:00,46.9,42.9,29.77,SE,127,0.0,0.0,86,0.00,,,0.18,26,WeatherCatV1.13B119,2013-03-31 22:36:00,
2013-03-31 18:41:00,46.9,42.9,29.77,SE,127,0.0,1.0,86,0.00,,,0.18,28,WeatherCatV1.13B119,2013-03-31 22:41:00,
2013-03-31 18:46:00,46.8,43.1,29.77,SE,127,0.0,1.0,87,0.00,,,0.18,67,WeatherCatV1.13B119,2013-03-31 22:46:00,
2013-03-31 18:51:00,46.8,42.8,29.77,SE,127,0.0,0.0,86,0.00,,,0.18,42,WeatherCatV1.13B119,2013-03-31 22:51:00,
2013-03-31 18:52:00,46.8,42.8,29.77,SE,127,0.0,0.0,86,0.00,,,0.18,33,WeatherCatV1.13B119,2013-03-31 22:52:00,
2013-03-31 18:56:00,46.8,42.8,29.77,SE,127,0.0,0.0,86,0.00,,,0.18,19,WeatherCatV1.13B119,2013-03-31 22:56:00,
2013-03-31 19:01:00,46.8,42.8,29.77,SE,127,0.0,0.0,86,0.00,,,0.18,12,WeatherCatV1.13B119,2013-03-31 23:01:00,
2013-03-31 19:06:00,46.8,42.8,29.77,SE,127,0.0,0.0,86,0.00,,,0.18,5,WeatherCatV1.13B119,2013-03-31 23:06:00,
2013-03-31 19:11:00,46.7,42.7,29.77,SE,127,0.0,0.0,86,0.00,,,0.18,0,WeatherCatV1.13B119,2013-03-31 23:11:00,
2013-03-31 19:16:00,46.7,42.7,29.77,SE,127,0.0,0.0,86,0.00,,,0.18,0,WeatherCatV1.13B119,2013-03-31 23:16:00,
2013-03-31 19:21:00,46.7,42.7,29.77,SE,127,0.0,0.0,86,0.00,,,0.18,0,WeatherCatV1.13B119,2013-03-31 23:21:00,
2013-03-31 19:26:00,46.6,42.6,29.77,SE,127,0.0,1.0,86,0.00,,,0.18,0,WeatherCatV1.13B119,2013-03-31 23:26:00,
2013-03-31 19:31:00,46.6,42.6,29.77,SE,127,0.0,0.0,86,0.00,,,0.18,0,WeatherCatV1.13B119,2013-03-31 23:31:00,
2013-03-31 19:36:00,46.5,42.5,29.77,SE,127,0.0,0.0,86,0.00,,,0.18,0,WeatherCatV1.13B119,2013-03-31 23:36:00,
2013-03-31 19:41:00,46.4,42.4,29.77,SE,127,0.0,0.0,86,0.00,,,0.18,0,WeatherCatV1.13B119,2013-03-31 23:41:00,
2013-03-31 19:46:00,46.3,42.3,29.77,SE,127,0.0,0.0,86,0.00,,,0.18,0,WeatherCatV1.13B119,2013-03-31 23:46:00,
2013-03-31 19:51:00,46.2,42.2,29.78,SE,143,1.0,1.0,86,0.00,,,0.18,0,WeatherCatV1.13B119,2013-03-31 23:51:00,
2013-03-31 19:58:00,46.0,42.0,29.78,SE,144,0.0,0.0,86,0.00,,,0.18,0,WeatherCatV1.13B119,2013-03-31 23:58:00,
2013-03-31 20:03:00,46.0,42.0,29.77,SE,144,0.0,0.0,86,0.00,,,0.18,0,WeatherCatV1.13B119,2013-04-01 00:03:00,
2013-03-31 20:08:00,45.9,42.0,29.77,SE,144,0.0,0.0,86,0.00,,,0.18,0,WeatherCatV1.13B119,2013-04-01 00:08:00,
2013-03-31 20:13:00,45.9,42.0,29.77,SE,144,0.0,0.0,86,0.00,,,0.18,0,WeatherCatV1.13B119,2013-04-01 00:13:00,
2013-03-31 20:18:00,45.9,42.0,29.77,SE,144,0.0,1.0,86,0.00,,,0.18,0,WeatherCatV1.13B119,2013-04-01 00:18:00,
2013-03-31 20:23:00,45.9,42.0,29.77,SE,144,1.0,1.0,86,0.00,,,0.18,0,WeatherCatV1.13B119,2013-04-01 00:23:00,
2013-03-31 20:26:00,45.9,42.0,29.78,SE,144,1.0,1.0,86,0.00,,,0.18,0,WeatherCatV1.13B119,2013-04-01 00:26:00,
2013-03-31 20:31:00,45.9,42.0,29.78,SE,146,0.0,1.0,86,0.00,,,0.18,0,WeatherCatV1.13B119,2013-04-01 00:31:00,
2013-03-31 20:36:00,46.0,42.0,29.78,SSW,210,1.0,2.0,86,0.00,,,0.18,0,WeatherCatV1.13B119,2013-04-01 00:36:00,
2013-03-31 20:41:00,46.0,42.0,29.79,SW,223,0.0,1.0,86,0.00,,,0.18,0,WeatherCatV1.13B119,2013-04-01 00:41:00,
2013-03-31 20:46:00,45.9,42.0,29.79,SW,228,1.0,1.0,86,0.00,,,0.18,0,WeatherCatV1.13B119,2013-04-01 00:46:00,
2013-03-31 20:51:00,45.9,42.0,29.79,SW,228,1.0,1.0,86,0.00,,,0.18,0,WeatherCatV1.13B119,2013-04-01 00:51:00,
2013-03-31 20:56:00,45.9,42.0,29.79,SW,228,0.0,0.0,86,0.00,,,0.18,0,WeatherCatV1.13B119,2013-04-01 00:56:00,
2013-03-31 21:01:00,45.7,41.8,29.79,SW,228,1.0,1.0,86,0.00,,,0.18,0,WeatherCatV1.13B119,2013-04-01 01:01:00,
2013-03-31 21:06:00,45.5,41.6,29.79,SW,228,0.0,2.0,86,0.00,,,0.18,0,WeatherCatV1.13B119,2013-04-01 01:06:00,
2013-03-31 21:11:00,45.5,41.6,29.79,SW,228,0.0,1.0,86,0.00,,,0.18,0,WeatherCatV1.13B119,2013-04-01 01:11:00,
2013-03-31 21:16:00,45.6,41.7,29.79,SW,228,1.0,2.0,86,0.00,,,0.18,0,WeatherCatV1.13B119,2013-04-01 01:16:00,
2013-03-31 21:21:00,45.8,41.9,29.79,WSW,243,1.0,2.0,86,0.00,,,0.18,0,WeatherCatV1.13B119,2013-04-01 01:21:00,
2013-03-31 21:26:00,46.0,42.0,29.79,WSW,243,0.0,1.0,86,0.00,,,0.18,0,WeatherCatV1.13B119,2013-04-01 01:26:00,
2013-03-31 21:31:00,45.9,42.0,29.80,WSW,243,0.0,2.0,86,0.00,,,0.18,0,WeatherCatV1.13B119,2013-04-01 01:31:00,
2013-03-31 21:36:00,45.8,41.9,29.80,WSW,243,0.0,0.0,86,0.00,,,0.18,0,WeatherCatV1.13B119,2013-04-01 01:36:00,
2013-03-31 21:41:00,45.8,41.9,29.79,WSW,243,0.0,1.0,86,0.00,,,0.18,0,WeatherCatV1.13B119,2013-04-01 01:41:00,
2013-03-31 21:46:00,45.7,41.8,29.80,WSW,243,1.0,2.0,86,0.00,,,0.18,0,WeatherCatV1.13B119,2013-04-01 01:46:00,
2013-03-31 21:51:00,45.6,41.7,29.80,WSW,243,1.0,2.0,86,0.00,,,0.18,0,WeatherCatV1.13B119,2013-04-01 01:51:00,
2013-03-31 21:56:00,45.6,42.0,29.79,WSW,243,0.0,1.0,87,0.00,,,0.19,0,WeatherCatV1.13B119,2013-04-01 01:56:00,
2013-03-31 22:01:00,45.5,41.9,29.80,WSW,244,1.0,2.0,87,0.00,,,0.19,0,WeatherCatV1.13B119,2013-04-01 02:01:00,
2013-03-31 22:06:00,45.1,41.2,29.80,WSW,244,1.0,1.0,86,0.00,,,0.19,0,WeatherCatV1.13B119,2013-04-01 02:06:00,
2013-03-31 22:11:00,44.8,40.9,29.79,WSW,250,0.0,2.0,86,0.00,,,0.19,0,WeatherCatV1.13B119,2013-04-01 02:11:00,
2013-03-31 22:16:00,44.7,40.8,29.79,WSW,246,0.0,2.0,86,0.00,,,0.19,0,WeatherCatV1.13B119,2013-04-01 02:16:00,
2013-03-31 22:21:00,44.6,40.7,29.79,WSW,246,0.0,0.0,86,0.00,,,0.19,0,WeatherCatV1.13B119,2013-04-01 02:21:00,
2013-03-31 22:26:00,44.5,40.6,29.80,WSW,246,0.0,0.0,86,0.00,,,0.19,0,WeatherCatV1.13B119,2013-04-01 02:26:00,
2013-03-31 22:31:00,44.3,40.4,29.80,WSW,246,0.0,0.0,86,0.00,,,0.19,0,WeatherCatV1.13B119,2013-04-01 02:31:00,
2013-03-31 22:36:00,44.2,40.6,29.80,WSW,246,0.0,0.0,87,0.00,,,0.19,0,WeatherCatV1.13B119,2013-04-01 02:36:00,
2013-03-31 22:41:00,44.2,40.6,29.80,WSW,246,0.0,0.0,87,0.00,,,0.19,0,WeatherCatV1.13B119,2013-04-01 02:41:00,
2013-03-31 22:46:00,44.4,40.8,29.79,WSW,250,0.0,2.0,87,0.00,,,0.19,0,WeatherCatV1.13B119,2013-04-01 02:46:00,
2013-03-31 22:51:00,44.4,40.8,29.79,SSW,194,0.0,1.0,87,0.00,,,0.19,0,WeatherCatV1.13B119,2013-04-01 02:51:00,
2013-03-31 22:56:00,44.3,40.7,29.79,SSW,198,0.0,1.0,87,0.00,,,0.19,0,WeatherCatV1.13B119,2013-04-01 02:56:00,
2013-03-31 23:01:00,44.3,40.7,29.79,SW,232,1.0,1.0,87,0.00,,,0.19,0,WeatherCatV1.13B119,2013-04-01 03:01:00,
2013-03-31 23:06:00,43.9,40.0,29.79,WSW,237,1.0,2.0,86,0.00,,,0.19,0,WeatherCatV1.13B119,2013-04-01 03:06:00,
2013-03-31 23:11:00,44.3,40.7,29.78,WSW,237,0.0,0.0,87,0.00,,,0.19,0,WeatherCatV1.13B119,2013-04-01 03:11:00,
2013-03-31 23:16:00,44.3,40.7,29.78,WSW,237,1.0,2.0,87,0.00,,,0.19,0,WeatherCatV1.13B119,2013-04-01 03:16:00,
2013-03-31 23:21:00,44.5,40.9,29.78,WSW,237,1.0,2.0,87,0.00,,,0.19,0,WeatherCatV1.13B119,2013-04-01 03:21:00,
2013-03-31 23:26:00,44.2,40.6,29.78,WSW,238,2.0,2.0,87,0.00,,,0.19,0,WeatherCatV1.13B119,2013-04-01 03:26:00,
2013-03-31 23:31:00,44.0,40.4,29.78,WSW,238,2.0,2.0,87,0.00,,,0.19,0,WeatherCatV1.13B119,2013-04-01 03:31:00,
2013-03-31 23:36:00,43.8,40.2,29.78,WSW,239,1.0,2.0,87,0.00,,,0.19,0,WeatherCatV1.13B119,2013-04-01 03:36:00,
2013-03-31 23:41:00,43.6,40.0,29.78,WSW,239,1.0,2.0,87,0.00,,,0.19,0,WeatherCatV1.13B119,2013-04-01 03:41:00,
2013-03-31 23:46:00,43.8,40.2,29.78,WSW,239,1.0,2.0,87,0.00,,,0.19,0,WeatherCatV1.13B119,2013-04-01 03:46:00,
2013-03-31 23:51:00,44.0,40.4,29.78,WSW,239,1.0,2.0,87,0.00,,,0.19,0,WeatherCatV1.13B119,2013-04-01 03:51:00,
2013-03-31 23:56:00,44.3,40.7,29.79,WSW,239,1.0,2.0,87,0.00,,,0.19,0,WeatherCatV1.13B119,2013-04-01 03:56:00,